Time;durP1;ratioP1;P1;durP2;ratioP2;P2;SDS_P1;SDS_P2;PMS_P1;PMS_P2;Temp;Humidity;BMP_temperature;BMP_pressure;BME280_temperature;BME280_humidity;BME280_pressure;Samples;Min_cycle;Max_cycle;Signal;HPM_P1;HPM_P2
2022/07/04 00:00:50;;;;;;;;;;;;;;;26.28;43.93;99867.97;4356101;32;20048;-84
2022/07/04 00:03:17;;;;;;;;;;;;;;;26.19;44.06;99868.41;4355773;32;19979;-85
2022/07/04 00:05:44;;;;;;;;;;;;;;;26.13;44.43;99874.00;4334847;32;19999;-85
2022/07/04 00:08:11;;;;;;;;;;;;;;;26.06;44.35;99877.88;4355623;32;20050;-85
2022/07/04 00:10:38;;;;;;;;;;;;;;;26.00;44.58;99878.16;4355049;32;20001;-85
2022/07/04 00:13:05;;;;;;;;;;;;;;;25.89;44.86;99871.56;4355217;32;20014;-85
2022/07/04 00:15:32;;;;;;;;;;;;;;;26.01;44.39;99864.00;4354157;32;19983;-85
2022/07/04 00:17:59;;;;;;;;;;;;;;;25.86;44.75;99871.72;4354498;32;19991;-84
2022/07/04 00:20:26;;;;;;;;;;;;;;;25.88;44.70;99876.97;4354393;32;19975;-86
2022/07/04 00:22:53;;;;;;;;;;;;;;;25.68;45.15;99873.38;4353583;32;20074;-86
2022/07/04 00:25:20;;;;;;;;;;;;;;;25.83;44.66;99871.00;4355905;32;19983;-86
2022/07/04 00:27:46;;;;;;;;;;;;;;;25.84;44.43;99873.56;4355936;32;20022;-85
2022/07/04 00:30:13;;;;;;;;;;;;;;;25.83;44.31;99876.31;4355150;32;20039;-85
2022/07/04 00:32:40;;;;;;;;;;;;;;;25.77;44.17;99876.56;4355727;32;20030;-85
2022/07/04 00:35:08;;;;;;;;;;;;;;;25.77;44.39;99872.09;4355362;32;20015;-86
2022/07/04 00:37:35;;;;;;;;;;;;;;;25.77;44.38;99872.09;4347216;32;19990;-85
2022/07/04 00:40:02;;;;;;;;;;;;;;;25.80;44.00;99866.66;4355244;32;20309;-85
2022/07/04 00:42:29;;;;;;;;;;;;;;;25.79;44.25;99870.25;4353573;32;20664;-86
2022/07/04 00:44:55;;;;;;;;;;;;;;;25.79;44.33;99869.41;4350431;32;19995;-86
2022/07/04 00:47:23;;;;;;;;;;;;;;;25.75;44.32;99868.69;4354727;32;19995;-84
2022/07/04 00:49:49;;;;;;;;;;;;;;;25.68;44.36;99867.22;4354941;32;20032;-86
2022/07/04 00:52:16;;;;;;;;;;;;;;;25.59;44.87;99862.34;4355233;32;20006;-86
2022/07/04 00:54:45;;;;;;;;;;;;;;;25.61;44.46;99871.94;4354490;32;20005;-84
2022/07/04 00:57:12;;;;;;;;;;;;;;;25.64;44.37;99865.66;4354201;32;20002;-86
2022/07/04 00:59:40;;;;;;;;;;;;;;;25.56;44.60;99860.72;4355080;32;19982;-86
2022/07/04 01:02:08;;;;;;;;;;;;;;;25.46;44.78;99862.91;4359590;32;19980;-86
2022/07/04 01:04:35;;;;;;;;;;;;;;;25.36;45.05;99871.31;4354293;32;19990;-85
2022/07/04 01:07:02;;;;;;;;;;;;;;;25.46;44.53;99876.16;4356848;32;20065;-83
2022/07/04 01:09:29;;;;;;;;;;;;;;;25.58;44.16;99865.94;4353958;32;19987;-83
2022/07/04 01:11:56;;;;;;;;;;;;;;;25.54;44.14;99859.91;4347942;32;20358;-85
2022/07/04 01:14:22;;;;;;;;;;;;;;;25.40;44.51;99863.19;4299158;33;19984;-84
2022/07/04 01:16:49;;;;;;;;;;;;;;;25.36;44.71;99869.53;4298661;33;19988;-86
2022/07/04 01:19:16;;;;;;;;;;;;;;;25.46;44.30;99878.81;4303410;33;20010;-85
2022/07/04 01:21:43;;;;;;;;;;;;;;;25.31;44.83;99868.91;4311756;33;20004;-85
2022/07/04 01:24:12;;;;;;;;;;;;;;;25.37;44.45;99879.22;4321787;33;19976;-85
2022/07/04 01:26:39;;;;;;;;;;;;;;;25.37;44.47;99873.94;4309444;33;19995;-84
2022/07/04 01:29:06;;;;;;;;;;;;;;;25.24;45.00;99878.06;4311434;32;19972;-85
2022/07/04 01:31:33;;;;;;;;;;;;;;;25.30;44.66;99875.09;4310220;33;20014;-86
2022/07/04 01:34:00;;;;;;;;;;;;;;;25.24;44.72;99867.44;4305441;33;20011;-86
2022/07/04 01:36:26;;;;;;;;;;;;;;;25.18;44.73;99867.72;4297232;33;20024;-86
2022/07/04 01:38:56;;;;;;;;;;;;;;;25.13;45.08;99865.25;4310511;32;19984;-86
2022/07/04 01:41:23;;;;;;;;;;;;;;;25.06;45.14;99874.38;4303015;33;20007;-85
2022/07/04 01:43:50;;;;;;;;;;;;;;;25.05;45.16;99862.06;4298468;33;20036;-86
2022/07/04 01:46:17;;;;;;;;;;;;;;;25.05;45.28;99870.84;4306523;32;20034;-84
2022/07/04 01:48:43;;;;;;;;;;;;;;;24.99;45.37;99868.47;4339648;32;19983;-86
2022/07/04 01:51:10;;;;;;;;;;;;;;;25.01;45.24;99866.59;4340481;32;20000;-84
2022/07/04 01:53:39;;;;;;;;;;;;;;;24.89;45.65;99877.75;4333186;32;20002;-86
2022/07/04 01:56:06;;;;;;;;;;;;;;;24.92;45.56;99882.91;4340298;32;19987;-85
2022/07/04 01:58:33;;;;;;;;;;;;;;;24.85;45.56;99877.91;4336189;33;20012;-85
2022/07/04 02:03:46;;;;;;;;;;;;;;;24.83;45.29;99873.56;4328604;33;20360;-86
2022/07/04 02:06:13;;;;;;;;;;;;;;;24.92;45.28;99882.91;4341117;32;19996;-85
2022/07/04 02:11:26;;;;;;;;;;;;;;;24.90;45.35;99881.25;4339613;32;19991;-83
2022/07/04 02:13:52;;;;;;;;;;;;;;;24.82;45.64;99892.13;4331100;32;19996;-82
2022/07/04 02:16:19;;;;;;;;;;;;;;;24.81;45.70;99882.47;4336486;33;20039;-85
2022/07/04 02:18:46;;;;;;;;;;;;;;;24.83;45.67;99888.59;4325825;33;19990;-84
2022/07/04 02:21:13;;;;;;;;;;;;;;;24.85;45.58;99886.72;4327088;33;20043;-86
2022/07/04 02:23:40;;;;;;;;;;;;;;;24.89;45.34;99883.03;4344889;32;20476;-85
2022/07/04 02:26:07;;;;;;;;;;;;;;;24.82;45.38;99886.84;4336996;32;20430;-85
2022/07/04 02:28:34;;;;;;;;;;;;;;;24.78;45.57;99880.81;4325908;32;19980;-83
2022/07/04 02:31:01;;;;;;;;;;;;;;;24.75;45.54;99880.09;4333554;32;20873;-86
2022/07/04 02:33:28;;;;;;;;;;;;;;;24.80;45.40;99884.28;4355308;32;19995;-86
2022/07/04 02:35:55;;;;;;;;;;;;;;;24.67;45.98;99887.50;4354917;32;20351;-86
2022/07/04 02:38:22;;;;;;;;;;;;;;;24.69;45.89;99888.28;4353184;32;19994;-82
2022/07/04 02:40:49;;;;;;;;;;;;;;;24.62;45.91;99884.16;4322556;32;20005;-83
2022/07/04 02:43:16;;;;;;;;;;;;;;;24.61;46.04;99887.75;4353554;32;20794;-85
2022/07/04 02:45:43;;;;;;;;;;;;;;;24.77;45.31;99886.19;4363899;32;20026;-85
2022/07/04 02:48:10;;;;;;;;;;;;;;;24.77;45.55;99895.00;4367391;32;20002;-81
2022/07/04 02:50:37;;;;;;;;;;;;;;;24.69;45.88;99885.63;4366809;32;20376;-82
2022/07/04 02:53:04;;;;;;;;;;;;;;;24.74;45.51;99888.97;4368953;32;20077;-82
2022/07/04 02:55:31;;;;;;;;;;;;;;;24.71;45.49;99891.75;4365006;32;19988;-82
2022/07/04 02:57:57;;;;;;;;;;;;;;;24.70;45.72;99892.69;4366130;32;20018;-86
2022/07/04 03:00:24;;;;;;;;;;;;;;;24.63;45.86;99897.34;4367021;32;20344;-85
2022/07/04 03:02:53;;;;;;;;;;;;;;;24.69;45.77;99896.22;4366643;32;19987;-85
2022/07/04 03:05:20;;;;;;;;;;;;;;;24.67;45.98;99895.44;4366565;32;19994;-85
2022/07/04 03:07:46;;;;;;;;;;;;;;;24.47;46.60;99893.59;4368244;32;20006;-82
2022/07/04 03:10:13;;;;;;;;;;;;;;;24.31;47.38;99890.66;4366889;32;19999;-83
2022/07/04 03:12:40;;;;;;;;;;;;;;;24.42;46.70;99888.50;4366629;32;20010;-85
2022/07/04 03:15:08;;;;;;;;;;;;;;;24.57;45.93;99893.16;4366083;32;20043;-86
2022/07/04 03:17:35;;;;;;;;;;;;;;;24.50;46.57;99896.97;4366560;32;19990;-85
2022/07/04 03:20:02;;;;;;;;;;;;;;;24.44;46.87;99894.59;4355966;32;19992;-83
2022/07/04 03:22:29;;;;;;;;;;;;;;;24.50;46.77;99902.25;4341800;32;20005;-85
2022/07/04 03:24:56;;;;;;;;;;;;;;;24.44;46.85;99902.53;4352993;32;19991;-85
2022/07/04 03:27:23;;;;;;;;;;;;;;;24.47;47.04;99902.37;4353622;32;20039;-81
2022/07/04 03:29:50;;;;;;;;;;;;;;;24.58;46.95;99902.81;4354278;32;20374;-86
2022/07/04 03:32:17;;;;;;;;;;;;;;;24.62;46.55;99894.75;4353741;32;20034;-82
2022/07/04 03:34:43;;;;;;;;;;;;;;;24.64;46.72;99900.88;4352676;32;20004;-84
2022/07/04 03:37:11;;;;;;;;;;;;;;;24.52;47.68;99896.91;4349533;32;20014;-82
2022/07/04 03:39:38;;;;;;;;;;;;;;;24.56;47.45;99891.44;4352650;32;19988;-85
2022/07/04 03:42:05;;;;;;;;;;;;;;;24.67;47.48;99898.09;4353390;32;20003;-82
2022/07/04 03:44:32;;;;;;;;;;;;;;;24.55;47.90;99895.00;4351605;32;20385;-84
2022/07/04 03:46:59;;;;;;;;;;;;;;;24.68;47.60;99894.50;4351622;32;19987;-83
2022/07/04 03:49:26;;;;;;;;;;;;;;;24.56;48.12;99896.72;4355403;32;19991;-82
2022/07/04 03:51:52;;;;;;;;;;;;;;;24.68;48.31;99891.88;4352205;32;20349;-84
2022/07/04 03:54:19;;;;;;;;;;;;;;;24.66;48.44;99885.75;4352146;32;19991;-83
2022/07/04 03:56:46;;;;;;;;;;;;;;;24.64;48.79;99882.34;4355250;32;19983;-85
2022/07/04 03:59:13;;;;;;;;;;;;;;;24.72;48.66;99896.97;4355239;32;20059;-86
2022/07/04 04:01:41;;;;;;;;;;;;;;;24.74;48.79;99884.53;4354851;32;19986;-84
2022/07/04 04:06:54;;;;;;;;;;;;;;;24.77;48.86;99895.00;4356019;32;20585;-85
2022/07/04 04:09:21;;;;;;;;;;;;;;;24.82;49.36;99897.44;4354362;32;19996;-83
2022/07/04 04:11:47;;;;;;;;;;;;;;;24.85;49.24;99892.00;4354407;32;20051;-85
2022/07/04 04:14:14;;;;;;;;;;;;;;;24.90;48.84;99899.78;4354472;32;19983;-85
2022/07/04 04:16:42;;;;;;;;;;;;;;;24.96;48.77;99905.69;4355983;32;19989;-86
2022/07/04 04:19:10;;;;;;;;;;;;;;;24.97;48.81;99902.09;4356133;32;20041;-84
2022/07/04 04:21:37;;;;;;;;;;;;;;;25.04;49.29;99898.25;4354020;32;20862;-83
2022/07/04 04:24:04;;;;;;;;;;;;;;;25.06;49.04;99891.09;4356271;32;19983;-84
2022/07/04 04:26:32;;;;;;;;;;;;;;;25.10;48.89;99896.28;4354295;32;19979;-83
2022/07/04 04:28:58;;;;;;;;;;;;;;;25.19;47.09;99896.78;4356221;32;19998;-82
2022/07/04 04:31:25;;;;;;;;;;;;;;;25.22;46.72;99901.09;4355370;32;19982;-83
2022/07/04 04:33:52;;;;;;;;;;;;;;;25.32;46.58;99902.41;4354609;32;20460;-83
2022/07/04 04:36:19;;;;;;;;;;;;;;;25.34;45.93;99895.25;4354641;32;19989;-83
2022/07/04 04:38:46;;;;;;;;;;;;;;;25.43;45.74;99894.84;4355986;32;19990;-82
2022/07/04 04:41:13;;;;;;;;;;;;;;;25.47;45.56;99901.72;4335661;32;20055;-83
2022/07/04 04:43:39;;;;;;;;;;;;;;;25.51;45.36;99892.72;4293996;33;20016;-81
2022/07/04 04:46:06;;;;;;;;;;;;;;;25.60;44.94;99890.59;4261749;33;19995;-85
2022/07/04 04:48:33;;;;;;;;;;;;;;;25.65;45.05;99888.56;4267999;33;20341;-85
2022/07/04 04:51:01;;;;;;;;;;;;;;;25.67;44.85;99889.38;4267398;33;19993;-85
2022/07/04 04:53:34;;;;;;;;;;;;;;;25.66;44.76;99887.66;4290751;33;20032;-85
2022/07/04 04:56:01;;;;;;;;;;;;;;;25.80;44.67;99882.56;4307718;33;20310;-83
2022/07/04 04:58:28;;;;;;;;;;;;;;;25.92;44.54;99884.69;4310895;33;20263;-85
2022/07/04 05:00:55;;;;;;;;;;;;;;;26.01;44.67;99885.22;4310338;33;20035;-84
2022/07/04 05:03:42;;;;;;;;;;;;;;;26.11;44.00;99886.50;4309824;33;20048;-87
2022/07/04 05:06:09;;;;;;;;;;;;;;;26.13;44.04;99885.50;4311387;33;20052;-84
2022/07/04 05:08:36;;;;;;;;;;;;;;;26.18;43.70;99887.91;4310424;33;20012;-84
2022/07/04 05:11:03;;;;;;;;;;;;;;;26.33;42.96;99889.84;4309344;33;20051;-83
2022/07/04 05:13:30;;;;;;;;;;;;;;;26.33;43.22;99896.94;4291522;33;20384;-83
2022/07/04 05:15:57;;;;;;;;;;;;;;;26.31;43.29;99899.66;4308783;33;20019;-84
2022/07/04 05:18:23;;;;;;;;;;;;;;;26.34;43.32;99894.22;4310949;33;20051;-83
2022/07/04 05:20:50;;;;;;;;;;;;;;;26.56;42.86;99893.19;4310287;33;20023;-82
2022/07/04 05:23:17;;;;;;;;;;;;;;;26.58;42.67;99892.19;4310635;33;20376;-82
2022/07/04 05:25:44;;;;;;;;;;;;;;;26.59;42.68;99899.22;4226716;33;20041;-81
2022/07/04 05:28:11;;;;;;;;;;;;;;;26.67;42.93;99896.19;4224446;33;20013;-82
2022/07/04 05:30:38;;;;;;;;;;;;;;;26.73;42.79;99898.53;4234208;33;20038;-81
2022/07/04 05:33:05;;;;;;;;;;;;;;;26.78;43.05;99893.84;4244403;33;20443;-82
2022/07/04 05:35:38;;;;;;;;;;;;;;;26.78;43.22;99899.16;4268854;33;20672;-84
2022/07/04 05:38:05;;;;;;;;;;;;;;;26.98;42.10;99899.97;4290266;33;20008;-84
2022/07/04 05:40:32;;;;;;;;;;;;;;;27.08;41.77;99896.75;4281370;33;19993;-84
2022/07/04 05:42:59;;;;;;;;;;;;;;;26.98;42.05;99899.97;4277744;33;20000;-85
2022/07/04 05:45:25;;;;;;;;;;;;;;;27.12;42.04;99892.13;4283615;33;20000;-83
2022/07/04 05:47:52;;;;;;;;;;;;;;;27.18;41.93;99904.28;4296935;33;20029;-83
2022/07/04 05:50:22;;;;;;;;;;;;;;;27.39;41.69;99895.19;4298171;33;20020;-83
2022/07/04 05:52:48;;;;;;;;;;;;;;;27.44;40.87;99897.59;4299299;33;19993;-83
2022/07/04 05:55:15;;;;;;;;;;;;;;;27.48;40.67;99909.81;4299517;33;20007;-83
2022/07/04 05:57:42;;;;;;;;;;;;;;;27.59;40.24;99902.97;4297352;33;19985;-82
2022/07/04 06:00:11;;;;;;;;;;;;;;;27.84;38.66;99901.69;4297061;33;19996;-83
2022/07/04 06:02:38;;;;;;;;;;;;;;;27.78;39.54;99902.87;4296581;33;20051;-82
2022/07/04 06:05:05;;;;;;;;;;;;;;;27.87;39.52;99895.34;4295234;33;20394;-83
2022/07/04 06:07:32;;;;;;;;;;;;;;;28.01;38.36;99898.09;4296536;33;19985;-83
2022/07/04 06:09:59;;;;;;;;;;;;;;;28.01;38.73;99900.75;4306847;33;20024;-83
2022/07/04 06:12:26;;;;;;;;;;;;;;;28.18;38.39;99894.53;4300474;33;20334;-83
2022/07/04 06:14:53;;;;;;;;;;;;;;;28.36;38.28;99900.59;4310711;33;19988;-83
2022/07/04 06:17:21;;;;;;;;;;;;;;;28.57;37.71;99895.91;4289225;33;20000;-84
2022/07/04 06:19:48;;;;;;;;;;;;;;;28.87;37.45;99904.75;4290781;33;20048;-82
2022/07/04 06:22:14;;;;;;;;;;;;;;;29.17;36.75;99886.13;4294649;33;20001;-83
2022/07/04 06:24:41;;;;;;;;;;;;;;;29.50;36.47;99893.03;4299714;33;20007;-83
2022/07/04 06:27:09;;;;;;;;;;;;;;;29.46;37.05;99898.66;4321276;33;19996;-83
2022/07/04 06:29:35;;;;;;;;;;;;;;;30.13;34.72;99897.97;4308452;33;20348;-83
2022/07/04 06:32:03;;;;;;;;;;;;;;;30.45;34.46;99896.88;4310708;33;20059;-83
2022/07/04 06:37:17;;;;;;;;;;;;;;;30.82;34.29;99897.97;4308535;33;19988;-83
2022/07/04 06:39:45;;;;;;;;;;;;;;;31.33;32.77;99906.09;4310481;33;20075;-83
2022/07/04 06:42:11;;;;;;;;;;;;;;;31.52;32.86;99908.38;4310079;33;20011;-83
2022/07/04 06:44:38;;;;;;;;;;;;;;;31.59;32.60;99900.75;4298241;33;20454;-82
2022/07/04 06:47:05;;;;;;;;;;;;;;;32.12;30.71;99894.28;4292651;33;19996;-83
2022/07/04 06:49:33;;;;;;;;;;;;;;;32.13;32.59;99892.44;4294914;33;20000;-83
2022/07/04 06:52:00;;;;;;;;;;;;;;;31.80;32.54;99893.87;4295137;33;20036;-84
2022/07/04 06:54:27;;;;;;;;;;;;;;;32.50;30.28;99893.31;4294271;33;20016;-84
2022/07/04 06:56:54;;;;;;;;;;;;;;;32.38;30.60;99895.03;4295878;33;20023;-83
2022/07/04 06:59:41;;;;;;;;;;;;;;;32.78;30.80;99897.47;4322504;32;19996;-83
2022/07/04 07:02:08;;;;;;;;;;;;;;;33.03;29.33;99890.28;4323029;32;20055;-84
2022/07/04 07:04:35;;;;;;;;;;;;;;;33.39;27.69;99891.06;4324161;33;20035;-83
2022/07/04 07:07:03;;;;;;;;;;;;;;;33.38;28.63;99894.72;4324630;33;19992;-83
2022/07/04 07:09:29;;;;;;;;;;;;;;;33.66;27.75;99905.03;4324898;33;20091;-83
2022/07/04 07:11:56;;;;;;;;;;;;;;;33.89;27.53;99902.34;4324753;32;20071;-83
2022/07/04 07:14:23;;;;;;;;;;;;;;;33.78;27.38;99898.69;4324660;33;19996;-83
2022/07/04 07:16:50;;;;;;;;;;;;;;;34.09;26.89;99901.63;4324732;33;20004;-84
2022/07/04 07:19:17;;;;;;;;;;;;;;;34.18;26.50;99905.41;4324351;32;19995;-83
2022/07/04 07:21:44;;;;;;;;;;;;;;;34.23;26.16;99903.19;4331459;32;20025;-84
2022/07/04 07:24:11;;;;;;;;;;;;;;;34.03;27.84;99902.13;4325086;33;20431;-87
2022/07/04 07:26:38;;;;;;;;;;;;;;;34.36;27.01;99897.66;4326789;32;19992;-87
2022/07/04 07:29:05;;;;;;;;;;;;;;;34.64;26.57;99891.72;4338982;32;20034;-89
2022/07/04 07:31:32;;;;;;;;;;;;;;;34.72;26.22;99897.34;4340256;33;20103;-83
2022/07/04 07:33:59;;;;;;;;;;;;;;;34.72;26.29;99905.41;4340769;32;20368;-82
2022/07/04 07:36:26;;;;;;;;;;;;;;;35.13;24.40;99909.16;4340797;32;19999;-82
2022/07/04 07:38:55;;;;;;;;;;;;;;;35.09;25.74;99899.59;4341336;32;19987;-83
2022/07/04 07:41:22;;;;;;;;;;;;;;;35.16;25.64;99908.00;4341073;32;19987;-83
2022/07/04 07:43:49;;;;;;;;;;;;;;;35.46;23.73;99893.75;4350391;32;19984;-86
2022/07/04 07:46:16;;;;;;;;;;;;;;;35.65;22.75;99887.66;4346196;32;20002;-83
2022/07/04 07:48:43;;;;;;;;;;;;;;;35.38;23.76;99896.25;4341124;32;20051;-83
2022/07/04 07:51:10;;;;;;;;;;;;;;;35.26;24.64;99898.19;4339781;32;20005;-82
2022/07/04 07:53:37;;;;;;;;;;;;;;;35.61;23.50;99887.06;4341057;32;19971;-82
2022/07/04 07:56:25;;;;;;;;;;;;;;;35.95;23.38;99893.97;4341116;32;20752;-82
2022/07/04 07:58:52;;;;;;;;;;;;;;;36.01;22.73;99886.19;4341650;32;20038;-82
2022/07/04 08:01:18;;;;;;;;;;;;;;;35.98;23.01;99891.03;4341089;32;20007;-83
2022/07/04 08:06:35;;;;;;;;;;;;;;;36.48;21.70;99886.47;4326396;33;20002;-83
2022/07/04 08:09:02;;;;;;;;;;;;;;;36.24;21.72;99878.75;4324287;32;20486;-81
2022/07/04 08:11:29;;;;;;;;;;;;;;;36.19;22.04;99883.75;4348772;32;20380;-82
2022/07/04 08:13:56;;;;;;;;;;;;;;;36.62;21.70;99881.69;4341280;32;20082;-83
2022/07/04 08:16:23;;;;;;;;;;;;;;;36.32;23.87;99876.22;4338711;32;20056;-83
2022/07/04 08:19:10;;;;;;;;;;;;;;;36.64;20.86;99872.47;4346912;32;19995;-82
2022/07/04 08:21:37;;;;;;;;;;;;;;;36.41;21.61;99871.84;4341019;32;20013;-86
2022/07/04 08:24:24;;;;;;;;;;;;;;;36.82;20.67;99880.66;4341280;32;19980;-81
2022/07/04 08:26:52;;;;;;;;;;;;;;;37.24;19.67;99877.69;4340988;32;19983;-81
2022/07/04 08:29:19;;;;;;;;;;;;;;;36.73;19.93;99873.47;4339508;32;20002;-84
2022/07/04 08:31:47;;;;;;;;;;;;;;;37.04;19.40;99873.28;4331360;32;19999;-83
2022/07/04 08:34:18;;;;;;;;;;;;;;;36.90;20.94;99879.97;4339942;32;19990;-83
2022/07/04 08:36:45;;;;;;;;;;;;;;;36.92;20.12;99870.75;4319318;32;20010;-83
2022/07/04 08:39:11;;;;;;;;;;;;;;;36.91;20.37;99877.09;4311009;33;20329;-84
2022/07/04 08:41:39;;;;;;;;;;;;;;;36.87;19.78;99881.09;4311300;33;20085;-83
2022/07/04 08:44:07;;;;;;;;;;;;;;;36.89;20.48;99884.53;4310213;33;19983;-83
2022/07/04 08:46:34;;;;;;;;;;;;;;;37.29;18.47;99869.13;4312303;33;20004;-83
2022/07/04 08:49:01;;;;;;;;;;;;;;;37.09;19.08;99873.72;4310289;33;20031;-83
2022/07/04 08:51:28;;;;;;;;;;;;;;;37.20;19.70;99871.69;4311124;33;19988;-83
2022/07/04 08:53:56;;;;;;;;;;;;;;;37.41;19.08;99874.19;4309957;33;19984;-84
2022/07/04 08:59:09;;;;;;;;;;;;;;;37.18;20.25;99878.25;4311555;33;20185;-82
2022/07/04 09:01:36;;;;;;;;;;;;;;;37.33;19.26;99865.97;4310359;33;19992;-84
2022/07/04 09:04:04;;;;;;;;;;;;;;;37.56;19.54;99882.72;4309587;33;20010;-83
2022/07/04 09:06:31;;;;;;;;;;;;;;;37.25;20.39;99879.37;4307741;33;19980;-84
2022/07/04 09:08:58;;;;;;;;;;;;;;;37.18;20.42;99878.25;4296760;33;20015;-84
2022/07/04 09:11:25;;;;;;;;;;;;;;;37.62;18.89;99875.84;4303557;33;19996;-84
2022/07/04 09:13:52;;;;;;;;;;;;;;;37.66;19.18;99874.56;4310109;33;19981;-84
2022/07/04 09:16:19;;;;;;;;;;;;;;;37.50;19.77;99874.34;4311683;33;19988;-85
2022/07/04 09:18:46;;;;;;;;;;;;;;;37.66;19.44;99877.28;4314316;33;20415;-85
2022/07/04 09:21:12;;;;;;;;;;;;;;;37.68;18.83;99880.66;4353335;32;20055;-84
2022/07/04 09:23:40;;;;;;;;;;;;;;;37.24;20.11;99866.88;4340558;32;19976;-85
2022/07/04 09:26:07;;;;;;;;;;;;;;;37.32;20.64;99871.53;4340571;32;19991;-86
2022/07/04 09:28:36;;;;;;;;;;;;;;;37.16;21.09;99864.03;4355223;32;20011;-85
2022/07/04 09:31:12;;;;;;;;;;;;;;;37.87;19.42;99868.91;4354659;32;20005;-85
2022/07/04 09:33:52;;;;;;;;;;;;;;;37.39;20.46;99865.38;4355239;32;19991;-85
2022/07/04 09:36:22;;;;;;;;;;;;;;;37.66;19.91;99866.47;4355230;32;20027;-83
2022/07/04 09:39:09;;;;;;;;;;;;;;;37.89;19.20;99873.16;4355646;32;20294;-86
2022/07/04 09:41:52;;;;;;;;;;;;;;;37.77;18.46;99868.12;4354916;32;19987;-85
2022/07/04 09:44:19;;;;;;;;;;;;;;;37.32;20.29;99871.53;4345740;32;20332;-85
2022/07/04 09:46:47;;;;;;;;;;;;;;;37.66;18.63;99866.47;4331349;33;20337;-86
2022/07/04 09:49:14;;;;;;;;;;;;;;;37.59;19.16;99859.94;4324575;33;19997;-87
2022/07/04 09:51:42;;;;;;;;;;;;;;;37.23;20.52;99860.59;4318465;33;20062;-86
2022/07/04 09:54:13;;;;;;;;;;;;;;;36.75;23.80;99849.88;4321585;33;20290;-85
2022/07/04 09:56:41;;;;;;;;;;;;;;;37.44;20.51;99863.09;4322210;33;20001;-86
2022/07/04 09:59:07;;;;;;;;;;;;;;;37.54;21.67;99867.66;4321473;33;20006;-85
2022/07/04 10:01:35;;;;;;;;;;;;;;;37.79;19.74;99850.75;4311186;33;20015;-86
2022/07/04 10:04:06;;;;;;;;;;;;;;;37.58;20.67;99847.44;4325781;33;20027;-86
2022/07/04 10:06:33;;;;;;;;;;;;;;;37.82;20.24;99845.06;4323465;33;21023;-85
2022/07/04 10:09:16;;;;;;;;;;;;;;;37.69;21.01;99849.97;4318905;33;20013;-85
2022/07/04 10:11:44;;;;;;;;;;;;;;;37.60;21.51;99846.28;4336731;33;20404;-84
2022/07/04 10:14:11;;;;;;;;;;;;;;;38.06;18.98;99838.25;4320827;33;20375;-85
2022/07/04 10:16:38;;;;;;;;;;;;;;;37.96;19.50;99835.59;4322755;33;19984;-84
2022/07/04 10:19:06;;;;;;;;;;;;;;;38.16;19.01;99830.91;4310960;33;20006;-86
2022/07/04 10:21:33;;;;;;;;;;;;;;;37.86;21.59;99824.81;4311326;33;20012;-86
2022/07/04 10:24:00;;;;;;;;;;;;;;;38.28;19.34;99826.97;4310686;33;19987;-86
2022/07/04 10:26:28;;;;;;;;;;;;;;;38.43;18.82;99815.66;4321804;33;19989;-84
2022/07/04 10:28:56;;;;;;;;;;;;;;;38.21;19.71;99817.78;4311685;33;20010;-84
2022/07/04 10:31:25;;;;;;;;;;;;;;;38.35;17.84;99809.13;4313088;33;19994;-84
2022/07/04 10:33:54;;;;;;;;;;;;;;;38.29;17.95;99815.19;4332926;32;19979;-84
2022/07/04 10:36:28;;;;;;;;;;;;;;;38.21;18.54;99812.38;4324461;33;20293;-84
2022/07/04 10:38:58;;;;;;;;;;;;;;;38.27;17.37;99794.69;4315506;33;20055;-84
2022/07/04 10:41:29;;;;;;;;;;;;;;;38.27;18.59;99810.94;4290254;32;20008;-85
2022/07/04 10:44:07;;;;;;;;;;;;;;;38.26;17.05;99801.97;4325874;32;19997;-85
2022/07/04 10:46:34;;;;;;;;;;;;;;;37.82;18.95;99807.22;4318479;33;20366;-85
2022/07/04 10:49:03;;;;;;;;;;;;;;;38.07;17.38;99807.53;4310991;33;19984;-84
2022/07/04 10:51:49;;;;;;;;;;;;;;;37.68;19.25;99802.31;4310873;33;20418;-84
2022/07/04 10:54:16;;;;;;;;;;;;;;;37.87;19.07;99794.06;4312585;33;19976;-85
2022/07/04 10:56:45;;;;;;;;;;;;;;;37.94;18.34;99799.78;4317541;33;20019;-85
2022/07/04 10:59:13;;;;;;;;;;;;;;;37.83;18.77;99798.09;4311208;33;19988;-85
2022/07/04 11:01:45;;;;;;;;;;;;;;;38.26;18.07;99798.38;4315120;33;20006;-84
2022/07/04 11:04:44;;;;;;;;;;;;;;;37.91;17.78;99790.13;4310669;33;19968;-84
2022/07/04 11:07:11;;;;;;;;;;;;;;;38.37;17.20;99795.47;4311628;33;20027;-83
2022/07/04 11:09:38;;;;;;;;;;;;;;;38.29;17.17;99780.03;4331471;33;20019;-86
2022/07/04 11:12:06;;;;;;;;;;;;;;;38.34;16.77;99779.53;4312384;33;20082;-84
2022/07/04 11:14:47;;;;;;;;;;;;;;;38.32;17.34;99768.91;4341539;32;20747;-85
2022/07/04 11:17:15;;;;;;;;;;;;;;;38.20;20.79;99772.84;4342222;32;20030;-85
2022/07/04 11:19:44;;;;;;;;;;;;;;;38.68;17.53;99766.16;4339713;33;20002;-84
2022/07/04 11:22:11;;;;;;;;;;;;;;;38.83;18.10;99770.03;4337774;33;19983;-84
2022/07/04 11:24:39;;;;;;;;;;;;;;;38.58;17.98;99770.81;4341602;32;19984;-84
2022/07/04 11:27:07;;;;;;;;;;;;;;;38.64;18.01;99764.75;4340518;32;20254;-85
2022/07/04 11:29:34;;;;;;;;;;;;;;;38.57;16.61;99752.88;4340979;32;20022;-85
2022/07/04 11:32:06;;;;;;;;;;;;;;;38.54;16.30;99747.78;4341812;32;20009;-86
2022/07/04 11:34:34;;;;;;;;;;;;;;;38.18;18.10;99742.37;4349461;32;20075;-86
2022/07/04 11:37:01;;;;;;;;;;;;;;;38.25;16.71;99743.47;4334346;32;20093;-86
2022/07/04 11:39:28;;;;;;;;;;;;;;;38.35;15.95;99733.41;4308441;33;20040;-86
2022/07/04 11:47:42;;;;;;;;;;;;;;;38.02;17.29;99734.97;4297965;33;19989;-86
2022/07/04 11:50:10;;;;;;;;;;;;;;;38.29;17.76;99728.66;4308079;33;20381;-84
2022/07/04 11:52:37;;;;;;;;;;;;;;;38.49;16.15;99717.66;4281283;33;875639;-84
2022/07/04 11:55:24;;;;;;;;;;;;;;;38.48;15.31;99715.94;4296956;33;19992;-83
2022/07/04 11:57:55;;;;;;;;;;;;;;;38.38;15.85;99716.88;4296362;33;20088;-85
2022/07/04 12:00:31;;;;;;;;;;;;;;;38.54;15.25;99720.72;4297159;33;20008;-86
2022/07/04 12:03:00;;;;;;;;;;;;;;;38.80;15.08;99718.87;4297424;33;20003;-86
2022/07/04 12:05:28;;;;;;;;;;;;;;;38.51;16.15;99721.03;4308533;33;19980;-84
2022/07/04 12:07:54;;;;;;;;;;;;;;;38.60;16.30;99711.97;4291633;33;20003;-85
2022/07/04 12:10:44;;;;;;;;;;;;;;;38.76;16.71;99709.38;4308533;33;20003;-84
2022/07/04 12:13:16;;;;;;;;;;;;;;;38.36;19.07;99713.47;4308395;33;19976;-84
2022/07/04 12:15:45;;;;;;;;;;;;;;;38.69;16.17;99707.47;4298217;33;20004;-84
2022/07/04 12:18:17;;;;;;;;;;;;;;;38.59;15.93;99713.00;4307949;33;20037;-84
2022/07/04 12:20:44;;;;;;;;;;;;;;;38.47;16.10;99703.44;4308503;33;20001;-84
2022/07/04 12:23:11;;;;;;;;;;;;;;;38.16;17.22;99711.94;4301055;33;20060;-84
2022/07/04 12:25:38;;;;;;;;;;;;;;;38.24;16.07;99709.31;4297110;33;20047;-83
2022/07/04 12:28:06;;;;;;;;;;;;;;;38.25;16.13;99711.00;4308399;33;20331;-84
2022/07/04 12:30:34;;;;;;;;;;;;;;;38.37;17.76;99707.09;4341016;32;19983;-84
2022/07/04 12:33:03;;;;;;;;;;;;;;;38.32;17.30;99700.41;4342732;32;19991;-84
2022/07/04 12:35:37;;;;;;;;;;;;;;;38.45;16.25;99716.25;4354785;32;20230;-84
2022/07/04 12:38:04;;;;;;;;;;;;;;;38.22;17.32;99711.31;4347008;32;20384;-84
2022/07/04 12:40:32;;;;;;;;;;;;;;;38.29;17.77;99707.00;4355786;32;20042;-83
2022/07/04 12:42:59;;;;;;;;;;;;;;;38.34;16.63;99704.66;4345454;32;20008;-84
2022/07/04 12:45:26;;;;;;;;;;;;;;;38.17;16.31;99707.41;4281647;33;20025;-84
2022/07/04 12:47:54;;;;;;;;;;;;;;;37.92;17.56;99705.31;4283139;33;19978;-84
2022/07/04 12:50:25;;;;;;;;;;;;;;;38.02;15.96;99704.41;4282521;33;20919;-84
2022/07/04 12:52:52;;;;;;;;;;;;;;;38.04;16.64;99707.81;4282246;33;19999;-85
2022/07/04 12:55:19;;;;;;;;;;;;;;;37.80;16.91;99711.09;4281673;33;19985;-83
2022/07/04 12:57:46;;;;;;;;;;;;;;;37.91;16.65;99713.56;4283193;33;19981;-84
2022/07/04 13:00:12;;;;;;;;;;;;;;;38.14;16.00;99708.56;4282855;33;20056;-83
2022/07/04 13:03:00;;;;;;;;;;;;;;;38.13;18.06;99701.44;4282428;33;19988;-83
2022/07/04 13:05:27;;;;;;;;;;;;;;;38.21;16.92;99693.41;4282664;33;19969;-83
2022/07/04 13:07:54;;;;;;;;;;;;;;;38.25;16.38;99705.59;4293616;33;19980;-84
2022/07/04 13:10:21;;;;;;;;;;;;;;;38.21;16.49;99693.41;4292978;33;19989;-83
2022/07/04 13:12:50;;;;;;;;;;;;;;;38.06;17.10;99684.16;4283089;33;19989;-83
2022/07/04 13:15:18;;;;;;;;;;;;;;;38.23;15.07;99691.41;4283051;33;19977;-83